Terminal Aerodrome Forecast
Issued by NWS Memphis, TN

Home | Current Version | Previous Version | Text Only | Print | Product List | Glossary On
Versions: 1 2 3 4 5 6 7 8 9 10 11 12 13
223
FTUS44 KMEG 132337
TAFJBR
TAF
KJBR 132337Z 1400/1424 08011KT P6SM OVC080
     FM141100 11010KT P6SM SCT040 OVC050
     FM141400 13012KT 6SM -FZRA OVC030
     FM141900 18010KT 6SM -RA OVC025
     FM142100 18007KT 6SM -RA BR OVC015=

USA.gov is the U.S. government's official web portal to all federal, state and local government web resources and services.